Time;durP1;ratioP1;P1;durP2;ratioP2;P2;SDS_P1;SDS_P2;PMS_P1;PMS_P2;Temp;Humidity;BMP_temperature;BMP_pressure;BME280_temperature;BME280_humidity;BME280_pressure;Samples;Min_cycle;Max_cycle;Signal;HPM_P1;HPM_P2
2024/01/16 00:00:38;;;;;;;0.10;0.10;;;;;;;-3.13;89.26;97967.94;4243657;28;20299;-64
2024/01/16 00:03:04;;;;;;;1.07;0.50;;;;;;;-3.13;88.48;97983.81;4248353;28;22079;-66
2024/01/16 00:05:31;;;;;;;3.60;0.50;;;;;;;-3.14;88.44;97985.63;4240629;28;20306;-68
2024/01/16 00:07:59;;;;;;;0.90;0.60;;;;;;;-3.16;88.15;97976.97;4234536;28;21752;-65
2024/01/16 00:10:26;;;;;;;0.97;0.73;;;;;;;-3.18;89.21;97992.16;4243356;28;20789;-66
2024/01/16 00:12:53;;;;;;;0.27;0.20;;;;;;;-3.22;89.34;97993.34;4244461;28;20575;-65
2024/01/16 00:15:19;;;;;;;3.03;0.77;;;;;;;-3.17;89.00;98000.91;4241012;28;21167;-63
2024/01/16 00:17:46;;;;;;;0.27;0.23;;;;;;;-3.21;89.17;98000.31;4234121;28;20260;-66
2024/01/16 00:20:12;;;;;;;0.10;0.10;;;;;;;-3.19;89.24;98003.69;4243458;28;20301;-64
2024/01/16 00:22:39;;;;;;;0.40;0.33;;;;;;;-3.29;89.81;98022.09;4239941;28;20776;-65
2024/01/16 00:25:06;;;;;;;1.07;0.50;;;;;;;-3.17;89.14;98014.16;4241792;28;20306;-65
2024/01/16 00:27:33;;;;;;;1.90;0.40;;;;;;;-3.20;89.53;98023.19;4243154;28;20229;-64
2024/01/16 00:29:59;;;;;;;2.93;2.50;;;;;;;-3.14;88.90;98025.34;4243791;28;20270;-64
2024/01/16 00:32:26;;;;;;;0.30;0.20;;;;;;;-3.14;89.51;98035.09;4238128;28;20234;-65
2024/01/16 00:34:53;;;;;;;0.73;0.73;;;;;;;-3.14;88.89;98035.09;4242866;28;21266;-64
2024/01/16 00:37:19;;;;;;;2.03;1.10;;;;;;;-3.08;88.41;98030.13;4238995;28;20237;-68
2024/01/16 00:39:46;;;;;;;0.10;0.10;;;;;;;-3.12;89.50;98043.72;4236175;28;20237;-64
2024/01/16 00:42:12;;;;;;;7.23;0.87;;;;;;;-3.20;89.85;98042.53;4242139;28;21702;-64
2024/01/16 00:44:39;;;;;;;0.13;0.13;;;;;;;-3.09;89.15;98056.72;4234431;28;20246;-68
2024/01/16 00:47:05;;;;;;;1.13;0.43;;;;;;;-3.16;89.51;98059.00;4237598;28;20284;-65
2024/01/16 00:49:32;;;;;;;4.97;1.53;;;;;;;-3.25;89.62;98052.63;4244779;28;20946;-67
2024/01/16 00:51:59;;;;;;;0.07;0.07;;;;;;;-3.09;89.38;98072.63;4245951;28;22160;-66
2024/01/16 00:54:25;;;;;;;0.13;0.13;;;;;;;-3.17;89.36;98088.25;4244092;28;20412;-66
2024/01/16 00:56:55;;;;;;;4.43;4.00;;;;;;;-3.14;89.64;98082.72;4242364;28;21353;-65
2024/01/16 00:59:22;;;;;;;0.30;0.30;;;;;;;-3.14;89.49;98082.72;4248276;28;20420;-65
2024/01/16 01:01:48;;;;;;;0.43;0.37;;;;;;;-3.17;89.10;98086.44;4245798;28;21528;-68
2024/01/16 01:04:15;;;;;;;1.17;0.50;;;;;;;-3.12;88.49;98091.38;4244235;28;20307;-67
2024/01/16 01:06:42;;;;;;;0.10;0.10;;;;;;;-3.05;87.61;98095.22;4232701;28;20249;-66
2024/01/16 01:09:11;;;;;;;1.57;0.60;;;;;;;-3.11;88.17;98093.91;4251484;28;20790;-66
2024/01/16 01:11:38;;;;;;;2.10;0.67;;;;;;;-3.19;88.10;98089.19;4253527;28;20281;-67
2024/01/16 01:14:05;;;;;;;0.30;0.30;;;;;;;-3.18;87.85;98087.41;4245205;28;20408;-64
2024/01/16 01:16:32;;;;;;;0.23;0.07;;;;;;;-3.14;87.54;98091.50;4249171;28;20237;-65
2024/01/16 01:18:58;;;;;;;0.47;0.27;;;;;;;-3.05;87.29;98097.88;4248619;28;21407;-66
2024/01/16 01:21:25;;;;;;;2.67;0.50;;;;;;;-3.08;87.24;98096.31;4245543;28;20239;-67
2024/01/16 01:23:52;;;;;;;1.83;0.80;;;;;;;-3.19;87.79;98096.31;4247407;28;20226;-65
2024/01/16 01:26:19;;;;;;;2.03;0.67;;;;;;;-3.16;87.60;98101.34;4249605;28;20293;-67
2024/01/16 01:28:46;;;;;;;1.17;0.70;;;;;;;-3.21;88.02;98107.00;4244285;28;20314;-63
2024/01/16 01:31:12;;;;;;;0.30;0.30;;;;;;;-3.18;87.57;98124.47;4226880;28;20225;-67
2024/01/16 01:33:40;;;;;;;0.20;0.20;;;;;;;-3.41;88.53;98113.84;4252315;28;21140;-64
2024/01/16 01:36:06;;;;;;;1.83;0.70;;;;;;;-3.50;89.81;98123.28;4242939;28;20470;-65
2024/01/16 01:38:33;;;;;;;0.00;0.00;;;;;;;-3.57;90.09;98124.69;4244637;28;20355;-64
2024/01/16 01:40:59;;;;;;;0.03;0.03;;;;;;;-3.56;90.11;98131.69;4236258;28;20607;-67
2024/01/16 01:43:26;;;;;;;0.20;0.20;;;;;;;-3.66;90.82;98131.53;4243318;28;20460;-64
2024/01/16 01:46:18;;;;;;;0.13;0.13;;;;;;;-3.69;90.60;98139.69;4259871;28;21595;-65
2024/01/16 01:48:50;;;;;;;0.53;0.37;;;;;;;-3.61;89.66;98139.13;4255179;28;20241;-66
2024/01/16 01:51:18;;;;;;;0.70;0.30;;;;;;;-3.68;89.50;98143.19;4248209;28;20332;-64
2024/01/16 01:53:48;;;;;;;1.50;0.47;;;;;;;-3.62;88.69;98153.31;4243099;28;21757;-66
2024/01/16 01:56:17;;;;;;;0.57;0.20;;;;;;;-3.62;87.98;98158.59;4244660;28;20233;-64
2024/01/16 01:58:47;;;;;;;0.10;0.10;;;;;;;-3.64;87.66;98172.88;4252332;28;20223;-65
2024/01/16 02:01:16;;;;;;;0.10;0.10;;;;;;;-3.56;86.26;98171.34;4245895;28;20241;-66
2024/01/16 02:03:44;;;;;;;4.03;3.10;;;;;;;-3.63;86.44;98183.34;4244559;28;20229;-66
2024/01/16 02:06:16;;;;;;;0.10;0.10;;;;;;;-3.60;85.06;98192.84;4249120;28;20865;-65
2024/01/16 02:08:44;;;;;;;0.20;0.20;;;;;;;-3.70;83.71;98176.81;4248210;28;20242;-68
2024/01/16 02:11:11;;;;;;;0.30;0.30;;;;;;;-3.64;81.96;98192.22;4241008;28;21597;-67
2024/01/16 02:13:37;;;;;;;0.10;0.10;;;;;;;-3.63;81.86;98199.22;4247812;28;20304;-64
2024/01/16 02:16:05;;;;;;;0.30;0.30;;;;;;;-3.70;81.10;98200.63;4246732;28;20378;-64
2024/01/16 02:18:32;;;;;;;0.13;0.13;;;;;;;-3.84;81.05;98207.78;4248166;28;20234;-65
2024/01/16 02:21:03;;;;;;;0.40;0.40;;;;;;;-3.81;80.56;98209.34;4251584;28;20241;-65
2024/01/16 02:23:31;;;;;;;1.60;0.23;;;;;;;-3.83;80.30;98220.03;4251437;28;20322;-66
2024/01/16 02:25:58;;;;;;;0.50;0.30;;;;;;;-3.94;81.02;98216.47;4243481;28;20635;-64
2024/01/16 02:28:24;;;;;;;1.40;0.50;;;;;;;-3.95;80.59;98215.63;4233394;28;23357;-65
2024/01/16 02:30:51;;;;;;;1.33;0.80;;;;;;;-3.95;79.73;98236.75;4248606;28;20396;-66
2024/01/16 02:33:18;;;;;;;0.50;0.50;;;;;;;-3.96;79.83;98240.34;4248403;28;20230;-67
2024/01/16 02:35:44;;;;;;;0.30;0.17;;;;;;;-3.92;79.03;98248.91;4244560;28;20314;-68
2024/01/16 02:38:11;;;;;;;0.97;0.60;;;;;;;-3.98;78.95;98252.84;4248440;28;20251;-67
2024/01/16 02:40:38;;;;;;;0.10;0.10;;;;;;;-3.93;78.62;98250.72;4244489;28;20260;-65
2024/01/16 02:43:04;;;;;;;0.20;0.20;;;;;;;-3.88;78.15;98253.03;4240691;28;20349;-67
2024/01/16 02:45:31;;;;;;;0.30;0.20;;;;;;;-3.93;78.53;98263.09;4266364;28;21965;-67
2024/01/16 02:47:57;;;;;;;0.17;0.10;;;;;;;-3.88;77.88;98259.16;4251366;28;21073;-66
2024/01/16 02:50:24;;;;;;;0.10;0.10;;;;;;;-3.84;78.01;98263.28;4240346;28;20232;-68
2024/01/16 02:52:51;;;;;;;0.10;0.10;;;;;;;-3.92;78.55;98267.41;4250570;28;20622;-68
2024/01/16 02:55:17;;;;;;;0.23;0.23;;;;;;;-3.97;79.34;98270.41;4247345;28;20236;-66
2024/01/16 02:57:44;;;;;;;0.17;0.10;;;;;;;-4.03;79.77;98282.25;4238993;28;20572;-66
2024/01/16 03:00:11;;;;;;;0.43;0.37;;;;;;;-3.94;79.89;98278.09;4231756;28;20296;-64
2024/01/16 03:02:38;;;;;;;0.10;0.10;;;;;;;-3.89;79.56;98293.63;4243412;28;22216;-65
2024/01/16 03:05:06;;;;;;;0.10;0.10;;;;;;;-3.88;79.24;98293.50;4245843;28;20263;-65
2024/01/16 03:07:33;;;;;;;0.40;0.30;;;;;;;-4.10;80.46;98302.13;4248263;28;20234;-66
2024/01/16 03:09:59;;;;;;;0.20;0.20;;;;;;;-4.05;80.89;98293.88;4248700;28;20234;-68
2024/01/16 03:12:26;;;;;;;0.10;0.10;;;;;;;-3.99;80.43;98299.56;4231996;28;20490;-66
2024/01/16 03:14:53;;;;;;;0.10;0.10;;;;;;;-4.11;80.86;98305.72;4242713;28;21657;-65
2024/01/16 03:17:19;;;;;;;0.10;0.10;;;;;;;-4.23;81.69;98306.59;4243739;28;20245;-66
2024/01/16 03:19:46;;;;;;;0.10;0.10;;;;;;;-4.27;81.97;98305.94;4242906;28;20230;-68
2024/01/16 03:22:13;;;;;;;0.20;0.20;;;;;;;-4.45;82.86;98308.03;4239870;28;20231;-68
2024/01/16 03:24:40;;;;;;;0.13;0.13;;;;;;;-4.31;82.53;98315.88;4245778;28;20358;-64
2024/01/16 03:27:07;;;;;;;0.10;0.10;;;;;;;-4.35;82.78;98317.03;4245595;28;20906;-67
2024/01/16 03:29:33;;;;;;;0.10;0.10;;;;;;;-4.34;82.41;98318.72;4245760;28;20234;-64
2024/01/16 03:32:00;;;;;;;0.50;0.30;;;;;;;-4.42;82.74;98328.13;4243867;28;22111;-65
2024/01/16 03:34:27;;;;;;;0.10;0.10;;;;;;;-4.43;83.34;98326.44;4252696;28;20312;-65
2024/01/16 03:36:54;;;;;;;1.83;1.00;;;;;;;-4.67;83.85;98335.91;4244514;28;20674;-65
2024/01/16 03:39:20;;;;;;;0.13;0.13;;;;;;;-4.49;82.78;98328.53;4238380;28;20380;-65
2024/01/16 03:41:47;;;;;;;0.43;0.33;;;;;;;-4.53;82.33;98342.91;4247227;28;22813;-64
2024/01/16 03:44:14;;;;;;;1.13;0.53;;;;;;;-4.78;83.05;98349.00;4253675;28;20324;-66
2024/01/16 03:46:40;;;;;;;0.30;0.30;;;;;;;-4.72;82.27;98345.09;4240987;28;20341;-65
2024/01/16 03:49:07;;;;;;;0.90;0.60;;;;;;;-4.89;82.63;98357.63;4247883;28;22172;-66
2024/01/16 03:51:34;;;;;;;0.13;0.13;;;;;;;-4.88;82.46;98356.69;4255731;28;20244;-64
2024/01/16 03:54:00;;;;;;;0.30;0.30;;;;;;;-4.95;82.48;98371.22;4246606;28;22184;-64
2024/01/16 03:56:27;;;;;;;0.77;0.43;;;;;;;-4.91;82.64;98374.50;4245935;28;25140;-68
2024/01/16 03:58:53;;;;;;;0.00;0.00;;;;;;;-5.00;82.47;98370.66;4250446;28;20305;-67
2024/01/16 04:01:31;;;;;;;2.53;0.60;;;;;;;-5.00;nan;98381.22;4249073;28;21257;-67
2024/01/16 04:03:57;;;;;;;0.10;0.10;;;;;;;-4.99;82.08;98390.81;4246031;28;20591;-68
2024/01/16 04:06:26;;;;;;;0.20;0.20;;;;;;;-5.10;82.43;98388.88;4250077;28;21481;-66
2024/01/16 04:08:52;;;;;;;0.10;0.10;;;;;;;-5.17;83.46;98395.50;4242768;28;20421;-67
2024/01/16 04:11:19;;;;;;;0.20;0.20;;;;;;;-5.04;82.00;98395.56;4260266;28;20243;-66
2024/01/16 04:13:45;;;;;;;0.10;0.10;;;;;;;-5.09;82.25;98406.41;4250438;28;20251;-65
2024/01/16 04:16:12;;;;;;;0.17;0.17;;;;;;;-5.09;82.10;98411.69;4253561;28;20229;-70
2024/01/16 04:18:40;;;;;;;0.70;0.50;;;;;;;-5.19;81.89;98402.66;4248448;28;23154;-64
2024/01/16 04:21:07;;;;;;;0.00;0.00;;;;;;;-5.16;82.00;98413.03;4240823;28;21173;-66
2024/01/16 04:23:33;;;;;;;0.20;0.10;;;;;;;-5.31;82.04;98422.75;4245859;28;22109;-68
2024/01/16 04:26:00;;;;;;;0.10;0.10;;;;;;;-5.34;82.50;98415.88;4234710;28;20234;-65
2024/01/16 04:28:27;;;;;;;0.10;0.10;;;;;;;-5.44;83.12;98426.16;4244516;28;20294;-66
2024/01/16 04:30:53;;;;;;;0.10;0.10;;;;;;;-5.32;82.50;98436.88;4247894;28;20230;-67
2024/01/16 04:33:20;;;;;;;0.10;0.10;;;;;;;-5.25;82.08;98435.56;4249723;28;20288;-69
2024/01/16 04:35:47;;;;;;;0.10;0.10;;;;;;;-5.45;82.30;98426.28;4244246;28;20284;-66
2024/01/16 04:38:13;;;;;;;0.13;0.13;;;;;;;-5.64;83.33;98426.56;4247178;28;20230;-66
2024/01/16 04:40:40;;;;;;;0.10;0.10;;;;;;;-5.65;83.31;98441.53;4250895;28;20234;-65
2024/01/16 04:43:07;;;;;;;0.10;0.10;;;;;;;-5.66;83.21;98450.38;4248768;28;22646;-67
2024/01/16 04:45:33;;;;;;;0.10;0.10;;;;;;;-5.66;83.81;98454.81;4246687;28;21217;-65
2024/01/16 04:48:00;;;;;;;0.10;0.10;;;;;;;-5.70;83.92;98455.94;4237870;28;22969;-65
2024/01/16 04:50:31;;;;;;;5.33;0.60;;;;;;;-5.71;83.80;98464.78;4248578;28;20271;-68
2024/01/16 04:52:59;;;;;;;0.67;0.67;;;;;;;-5.81;84.46;98470.63;4245415;28;20241;-65
2024/01/16 04:55:27;;;;;;;0.10;0.10;;;;;;;-5.90;85.00;98472.03;4252406;28;21592;-66
2024/01/16 04:57:55;;;;;;;2.43;1.43;;;;;;;-5.90;84.78;98472.03;4244080;28;20241;-64
2024/01/16 05:00:22;;;;;;;26.13;0.77;;;;;;;-6.02;85.17;98471.94;4250279;28;20322;-65
2024/01/16 05:02:49;;;;;;;0.10;0.10;;;;;;;-6.08;85.55;98481.88;4238521;28;20258;-66
2024/01/16 05:05:16;;;;;;;0.30;0.27;;;;;;;-6.23;86.01;98478.38;4247438;28;20304;-67
2024/01/16 05:07:43;;;;;;;0.00;0.00;;;;;;;-6.21;86.20;98483.53;4247269;28;20886;-66
2024/01/16 05:10:14;;;;;;;0.10;0.10;;;;;;;-6.44;86.85;98488.38;4250500;28;20343;-66
2024/01/16 05:12:41;;;;;;;0.47;0.43;;;;;;;-6.51;86.70;98486.19;4248943;28;20245;-66
2024/01/16 05:15:08;;;;;;;0.77;0.30;;;;;;;-6.46;87.03;98481.50;4250155;28;21556;-67
2024/01/16 05:17:36;;;;;;;0.10;0.10;;;;;;;-6.54;87.16;98487.22;4245506;28;20306;-66
2024/01/16 05:20:05;;;;;;;0.10;0.10;;;;;;;-6.50;87.60;98494.00;4249337;28;20307;-68
2024/01/16 05:22:32;;;;;;;0.10;0.10;;;;;;;-6.58;87.72;98510.22;4245780;28;20243;-65
2024/01/16 05:24:59;;;;;;;1.00;0.50;;;;;;;-6.57;87.80;98514.53;4230788;28;22860;-66
2024/01/16 05:27:26;;;;;;;0.20;0.20;;;;;;;-6.60;88.40;98514.72;4248968;28;20237;-65
2024/01/16 05:29:53;;;;;;;0.07;0.07;;;;;;;-6.61;88.92;98520.09;4249525;28;20253;-68
2024/01/16 05:32:20;;;;;;;0.10;0.10;;;;;;;-6.66;89.15;98527.38;4246192;28;20276;-65
2024/01/16 05:34:46;;;;;;;1.03;0.60;;;;;;;-6.69;89.73;98531.91;4247431;28;21740;-66
2024/01/16 05:37:13;;;;;;;0.20;0.20;;;;;;;-6.58;89.40;98535.69;4244739;28;22075;-66
2024/01/16 05:39:40;;;;;;;0.10;0.10;;;;;;;-6.42;88.28;98540.94;4243055;28;20248;-66
2024/01/16 05:42:06;;;;;;;0.10;0.10;;;;;;;-6.48;88.48;98544.78;4245311;28;20237;-66
2024/01/16 05:44:33;;;;;;;1.50;0.77;;;;;;;-6.53;88.91;98546.78;4252315;28;20314;-66
2024/01/16 05:47:00;;;;;;;0.10;0.10;;;;;;;-6.50;88.44;98554.53;4247206;28;20254;-65
2024/01/16 05:49:27;;;;;;;0.00;0.00;;;;;;;-6.61;89.10;98559.56;4245630;28;20241;-65
2024/01/16 05:51:53;;;;;;;1.20;0.43;;;;;;;-6.49;88.81;98558.00;4251838;28;20321;-65
2024/01/16 05:54:20;;;;;;;2.00;1.70;;;;;;;-6.38;87.91;98560.88;4248737;28;21005;-66
2024/01/16 05:56:46;;;;;;;1.23;0.73;;;;;;;-6.43;88.40;98566.41;4246012;28;21767;-66
2024/01/16 05:59:13;;;;;;;1.40;0.60;;;;;;;-6.35;88.03;98567.75;4247334;28;21629;-66
2024/01/16 06:01:39;;;;;;;0.10;0.10;;;;;;;-6.40;87.92;98570.66;4249412;28;20928;-66
2024/01/16 06:04:06;;;;;;;34.37;0.83;;;;;;;-6.35;87.68;98566.00;4243869;28;20342;-67
2024/01/16 06:06:33;;;;;;;0.10;0.10;;;;;;;-6.31;87.87;98574.56;4243866;28;20664;-66
2024/01/16 06:09:04;;;;;;;5.33;0.40;;;;;;;-6.13;86.32;98593.72;4244419;28;20238;-67
2024/01/16 06:11:32;;;;;;;0.10;0.10;;;;;;;-6.03;85.67;98597.53;4249989;28;20230;-65
2024/01/16 06:14:01;;;;;;;0.30;0.30;;;;;;;-5.98;85.24;98598.09;4230473;28;22127;-67
2024/01/16 06:16:29;;;;;;;1.20;0.30;;;;;;;-5.99;84.96;98599.06;4257635;28;20327;-68
2024/01/16 06:18:56;;;;;;;0.20;0.10;;;;;;;-5.88;84.24;98612.41;4236235;28;21323;-66
2024/01/16 06:21:23;;;;;;;0.30;0.30;;;;;;;-5.80;83.68;98611.97;4242758;28;22051;-66
2024/01/16 06:23:50;;;;;;;0.30;0.30;;;;;;;-5.75;82.63;98622.25;4247132;28;20333;-66
2024/01/16 06:26:17;;;;;;;0.10;0.10;;;;;;;-5.69;81.94;98637.72;4254376;28;20370;-66
2024/01/16 06:28:44;;;;;;;0.10;0.10;;;;;;;-5.59;81.19;98641.50;4233681;28;22689;-67
2024/01/16 06:31:11;;;;;;;4.03;0.57;;;;;;;-5.70;82.11;98645.72;4249188;28;22266;-64
2024/01/16 06:33:38;;;;;;;1.03;0.77;;;;;;;-5.68;82.35;98641.19;4246646;28;20313;-65
2024/01/16 06:36:06;;;;;;;0.87;0.40;;;;;;;-5.73;82.65;98646.72;4257086;28;20236;-65
2024/01/16 06:38:32;;;;;;;0.30;0.20;;;;;;;-5.66;81.49;98653.34;4244720;28;20669;-68
2024/01/16 06:41:00;;;;;;;2.00;1.90;;;;;;;-5.53;81.25;98652.63;4245686;28;20242;-68
2024/01/16 06:43:27;;;;;;;0.33;0.33;;;;;;;-5.68;81.19;98651.72;4245242;28;21676;-66
2024/01/16 06:45:54;;;;;;;2.73;0.67;;;;;;;-5.73;81.45;98654.63;4241613;28;21188;-65
2024/01/16 06:48:22;;;;;;;0.43;0.43;;;;;;;-5.71;80.82;98657.19;4249496;28;20790;-66
2024/01/16 06:50:49;;;;;;;0.10;0.10;;;;;;;-5.71;81.01;98659.84;4244180;28;22045;-68
2024/01/16 06:53:16;;;;;;;0.10;0.10;;;;;;;-5.65;81.14;98662.94;4247519;28;20796;-67
2024/01/16 06:55:43;;;;;;;0.40;0.20;;;;;;;-5.74;81.35;98659.06;4245918;28;20299;-66
2024/01/16 06:58:10;;;;;;;5.87;0.63;;;;;;;-5.71;81.58;98662.47;4256678;28;20246;-65
2024/01/16 07:00:37;;;;;;;0.10;0.10;;;;;;;-5.58;80.49;98666.91;4234225;28;26216;-67
2024/01/16 07:03:04;;;;;;;0.20;0.20;;;;;;;-5.69;81.30;98682.53;4261790;28;20455;-66
2024/01/16 07:05:31;;;;;;;0.10;0.10;;;;;;;-5.58;80.61;98689.81;4265065;28;20532;-67
2024/01/16 07:07:58;;;;;;;0.10;0.10;;;;;;;-5.69;81.42;98703.59;4247783;28;20292;-66
2024/01/16 07:10:25;;;;;;;0.20;0.20;;;;;;;-5.77;81.55;98701.41;4240088;28;20241;-67
2024/01/16 07:12:51;;;;;;;1.70;1.60;;;;;;;-5.58;81.73;98708.25;4263710;28;26584;-65
2024/01/16 07:15:18;;;;;;;0.30;0.30;;;;;;;-5.70;81.40;98706.34;4262500;28;24549;-69
2024/01/16 07:17:45;;;;;;;0.90;0.70;;;;;;;-5.69;80.66;98713.28;4241974;28;21415;-66
2024/01/16 07:20:12;;;;;;;0.90;0.33;;;;;;;-5.84;80.79;98731.66;4248719;28;20233;-67
2024/01/16 07:22:41;;;;;;;1.03;0.30;;;;;;;-5.75;81.17;98725.06;4254398;28;20234;-69
2024/01/16 07:25:08;;;;;;;0.10;0.10;;;;;;;-5.71;80.42;98720.44;4250361;28;21187;-69
2024/01/16 07:27:37;;;;;;;0.50;0.17;;;;;;;-5.75;80.00;98736.44;4255638;28;21533;-68
2024/01/16 07:30:04;;;;;;;0.13;0.13;;;;;;;-5.85;80.97;98748.41;4249019;28;20287;-66
2024/01/16 07:32:32;;;;;;;0.30;0.20;;;;;;;-6.07;81.89;98749.63;4253509;28;21181;-67
2024/01/16 07:34:59;;;;;;;0.20;0.20;;;;;;;-5.82;81.50;98756.16;4254018;28;21878;-67
2024/01/16 07:37:25;;;;;;;0.10;0.10;;;;;;;-5.78;80.26;98765.56;4245386;28;20243;-67
2024/01/16 07:39:52;;;;;;;0.10;0.10;;;;;;;-5.96;80.44;98766.63;4241332;28;22186;-66
2024/01/16 07:42:19;;;;;;;2.23;1.23;;;;;;;-5.90;80.18;98772.41;4251186;28;21871;-67
2024/01/16 07:44:45;;;;;;;8.23;1.97;;;;;;;-6.06;80.54;98776.84;4254071;28;22700;-66
2024/01/16 07:47:12;;;;;;;5.93;1.07;;;;;;;-5.98;80.25;98771.97;4250761;28;24922;-67
2024/01/16 07:49:39;;;;;;;1.93;1.23;;;;;;;-6.09;80.49;98777.00;4240405;28;25530;-67
2024/01/16 07:52:06;;;;;;;0.97;0.20;;;;;;;-6.09;80.17;98793.66;4252990;28;20253;-70
2024/01/16 07:54:33;;;;;;;0.93;0.43;;;;;;;-6.00;79.74;98792.31;4257180;28;20295;-67
2024/01/16 07:56:59;;;;;;;0.20;0.20;;;;;;;-5.95;79.37;98797.31;4246104;28;20235;-67
2024/01/16 07:59:26;;;;;;;0.20;0.20;;;;;;;-6.06;79.74;98798.75;4250725;28;20889;-66
2024/01/16 08:01:54;;;;;;;0.77;0.43;;;;;;;-5.88;79.30;98806.56;4232898;28;20243;-67
2024/01/16 08:04:20;;;;;;;0.93;0.17;;;;;;;-6.04;79.42;98806.56;4250686;28;20234;-66
2024/01/16 08:06:47;;;;;;;0.10;0.10;;;;;;;-5.99;79.60;98815.09;4243605;28;20256;-68
2024/01/16 08:09:14;;;;;;;1.17;0.47;;;;;;;-5.90;78.40;98814.56;4258984;28;20227;-66
2024/01/16 08:11:41;;;;;;;0.10;0.10;;;;;;;-5.89;79.03;98816.25;4259738;28;20327;-64
2024/01/16 08:14:08;;;;;;;0.20;0.20;;;;;;;-5.91;78.31;98818.13;4248356;28;22769;-67
2024/01/16 08:16:34;;;;;;;1.40;0.33;;;;;;;-5.80;78.54;98816.69;4245001;28;20230;-69
2024/01/16 08:19:03;;;;;;;0.13;0.13;;;;;;;-5.78;78.07;98828.84;4246693;28;20230;-67
2024/01/16 08:21:30;;;;;;;0.80;0.33;;;;;;;-5.77;77.51;98819.16;4260345;28;20321;-65
2024/01/16 08:23:56;;;;;;;0.63;0.40;;;;;;;-5.85;77.51;98824.00;4249912;28;20237;-66
2024/01/16 08:26:23;;;;;;;0.50;0.40;;;;;;;-5.80;77.65;98828.09;4250263;28;22078;-67
2024/01/16 08:28:50;;;;;;;0.67;0.37;;;;;;;-5.68;77.32;98834.47;4266408;28;21466;-68
2024/01/16 08:31:21;;;;;;;1.07;0.20;;;;;;;-5.70;76.99;98838.13;4252600;28;20235;-67
2024/01/16 08:33:48;;;;;;;0.47;0.40;;;;;;;-5.66;76.59;98842.28;4272645;28;20227;-70
2024/01/16 08:36:18;;;;;;;0.20;0.20;;;;;;;-5.38;75.68;98841.63;4239417;28;20241;-64
2024/01/16 08:38:45;;;;;;;0.60;0.27;;;;;;;-5.35;74.87;98853.78;4263649;28;20284;-66
2024/01/16 08:41:13;;;;;;;0.30;0.30;;;;;;;-4.72;73.30;98852.81;4354829;28;20298;-68
2024/01/16 08:43:40;;;;;;;0.00;0.00;;;;;;;-2.54;67.21;98851.56;4324409;28;20245;-62
2024/01/16 08:46:06;;;;;;;0.20;0.20;;;;;;;-0.66;59.03;98850.66;4286193;28;25123;-65
2024/01/16 08:48:33;;;;;;;0.50;0.50;;;;;;;2.25;51.46;98857.59;4257063;28;22114;-65
2024/01/16 08:51:00;;;;;;;2.67;0.67;;;;;;;1.62;49.21;98856.66;4269324;28;20237;-64
2024/01/16 08:53:30;;;;;;;1.33;0.60;;;;;;;1.30;49.12;98870.00;4260468;28;21692;-64
2024/01/16 08:55:57;;;;;;;0.27;0.27;;;;;;;1.18;50.19;98866.53;4234828;28;20233;-64
2024/01/16 08:58:24;;;;;;;0.60;0.30;;;;;;;3.74;44.19;98874.63;4256403;28;21488;-66
2024/01/16 09:00:51;;;;;;;2.00;0.87;;;;;;;2.00;45.33;98871.22;4251784;28;20317;-65
2024/01/16 09:03:18;;;;;;;0.03;0.03;;;;;;;3.70;42.79;98876.75;4272160;28;20230;-64
2024/01/16 09:05:48;;;;;;;0.00;0.00;;;;;;;3.36;42.17;98892.38;4341076;28;20695;-65
2024/01/16 09:08:15;;;;;;;0.00;0.00;;;;;;;3.70;42.63;98882.09;4296894;28;20331;-67
2024/01/16 09:10:42;;;;;;;2.50;0.50;;;;;;;1.80;45.65;98891.59;4323833;28;20230;-67
2024/01/16 09:13:09;;;;;;;0.43;0.20;;;;;;;3.17;44.11;98884.19;4277273;28;20242;-65
2024/01/16 09:15:37;;;;;;;0.30;0.30;;;;;;;0.81;47.06;98888.19;4266363;28;21585;-64
2024/01/16 09:18:04;;;;;;;0.00;0.00;;;;;;;2.02;45.84;98893.31;4276036;28;22766;-64
2024/01/16 09:20:31;;;;;;;0.80;0.50;;;;;;;3.10;43.42;98892.88;4293392;28;20289;-64
2024/01/16 09:22:58;;;;;;;0.00;0.00;;;;;;;2.36;45.06;98881.53;4269530;28;20343;-65
2024/01/16 09:25:27;;;;;;;0.00;0.00;;;;;;;2.68;43.06;98891.25;4265939;28;21734;-67
2024/01/16 09:27:53;;;;;;;0.33;0.10;;;;;;;2.16;44.12;98899.28;4273898;28;20226;-66
2024/01/16 09:30:22;;;;;;;0.40;0.40;;;;;;;3.16;42.23;98895.03;4304386;28;20383;-66
2024/01/16 09:32:49;;;;;;;0.10;0.10;;;;;;;2.84;43.29;98891.56;4287429;28;20448;-64
2024/01/16 09:35:16;;;;;;;0.40;0.30;;;;;;;3.34;41.88;98895.19;4283340;28;25675;-66
2024/01/16 09:37:43;;;;;;;0.00;0.00;;;;;;;4.39;39.97;98906.06;4265237;28;20248;-66
2024/01/16 09:40:11;;;;;;;0.00;0.00;;;;;;;6.14;37.61;98907.81;4247842;28;20239;-64
2024/01/16 09:42:38;;;;;;;0.10;0.10;;;;;;;5.22;36.88;98892.69;4245980;28;21512;-64
2024/01/16 09:45:05;;;;;;;0.30;0.20;;;;;;;3.89;39.54;98901.81;4276591;28;20230;-64
2024/01/16 09:47:33;;;;;;;0.10;0.10;;;;;;;6.39;35.66;98908.81;4306077;28;20242;-67
2024/01/16 09:50:02;;;;;;;0.30;0.20;;;;;;;4.32;38.94;98921.88;4260243;28;20237;-64
2024/01/16 09:52:29;;;;;;;0.10;0.10;;;;;;;1.68;42.86;98913.97;4268986;28;20358;-64
2024/01/16 09:54:56;;;;;;;0.20;0.20;;;;;;;0.55;46.92;98923.06;4261686;28;20230;-64
2024/01/16 09:57:25;;;;;;;0.53;0.40;;;;;;;-0.60;49.18;98933.53;4261119;28;20276;-65
2024/01/16 09:59:52;;;;;;;0.20;0.20;;;;;;;-0.85;50.84;98940.66;4250373;28;23768;-66
2024/01/16 10:02:20;;;;;;;0.10;0.10;;;;;;;-0.58;50.93;98944.91;4264466;28;20245;-64
2024/01/16 10:04:48;;;;;;;0.10;0.10;;;;;;;-1.09;51.94;98932.66;4257199;28;20379;-65
2024/01/16 10:07:15;;;;;;;0.10;0.10;;;;;;;-2.16;55.63;98942.69;4258817;28;21230;-63
2024/01/16 10:09:43;;;;;;;0.77;0.67;;;;;;;-1.67;54.68;98936.66;4270211;28;20234;-65
2024/01/16 10:12:11;;;;;;;0.40;0.40;;;;;;;-2.12;56.41;98950.34;4282068;28;20296;-63
2024/01/16 10:14:38;;;;;;;0.40;0.20;;;;;;;-2.25;55.56;98955.63;4249136;28;20249;-65
2024/01/16 10:17:05;;;;;;;0.40;0.40;;;;;;;-1.62;53.71;98958.41;4248849;28;20227;-65
2024/01/16 10:19:33;;;;;;;0.10;0.10;;;;;;;-1.97;55.35;98961.69;4245810;28;20919;-65
2024/01/16 10:22:21;;;;;;;0.50;0.20;;;;;;;-1.98;55.54;98961.81;4247215;28;20306;-64
2024/01/16 10:25:16;;;;;;;0.33;0.33;;;;;;;-1.78;54.35;98969.25;4252285;28;20234;-65
2024/01/16 10:27:43;;;;;;;0.10;0.10;;;;;;;-2.00;55.54;98966.38;4282592;28;22559;-66
2024/01/16 10:30:12;;;;;;;0.10;0.10;;;;;;;-1.68;55.26;98969.47;4242627;28;20395;-67
2024/01/16 10:32:40;;;;;;;1.63;0.60;;;;;;;-1.80;55.39;98967.66;4306295;28;20749;-63
2024/01/16 10:35:10;;;;;;;1.30;0.63;;;;;;;-2.10;56.13;98972.28;4248939;28;20231;-63
2024/01/16 10:37:47;;;;;;;0.20;0.20;;;;;;;-1.87;55.62;98971.69;4280933;28;20226;-62
2024/01/16 10:40:24;;;;;;;1.60;0.73;;;;;;;-2.04;55.17;98978.97;4338745;28;20230;-61
2024/01/16 10:43:01;;;;;;;0.10;0.10;;;;;;;-2.21;56.36;98980.13;4408610;28;20229;-67
2024/01/16 10:45:28;;;;;;;1.80;0.70;;;;;;;-2.50;56.78;98977.59;4294039;28;21004;-71
2024/01/16 10:48:03;;;;;;;0.10;0.10;;;;;;;-2.04;59.08;99002.84;4325492;28;20298;-73
2024/01/16 10:50:32;;;;;;;1.40;0.30;;;;;;;-2.17;55.61;98988.72;4251648;28;20571;-68
2024/01/16 10:53:03;;;;;;;0.23;0.23;;;;;;;-2.10;55.29;98990.00;4259667;28;21900;-70
2024/01/16 10:55:30;;;;;;;0.10;0.10;;;;;;;-2.34;58.30;98982.72;4265017;28;21085;-69
2024/01/16 10:57:58;;;;;;;1.50;0.43;;;;;;;-2.26;61.48;98987.50;4250321;28;20377;-69
2024/01/16 11:00:24;;;;;;;0.10;0.10;;;;;;;-2.37;60.79;98987.38;4245995;28;20308;-70
2024/01/16 11:03:09;;;;;;;5.30;0.70;;;;;;;-2.63;57.85;98985.50;4255239;28;20227;-70
2024/01/16 11:05:37;;;;;;;2.27;0.83;;;;;;;-2.40;58.08;98989.28;4255691;28;20240;-68
2024/01/16 11:08:05;;;;;;;4.87;1.73;;;;;;;-2.53;61.03;98998.16;4246623;28;25018;-69
2024/01/16 11:10:34;;;;;;;5.00;1.13;;;;;;;-2.96;65.60;99002.59;4257070;28;21730;-69
2024/01/16 11:13:02;;;;;;;2.73;1.53;;;;;;;-3.10;65.79;99002.59;4257810;28;20238;-69
2024/01/16 11:15:29;;;;;;;3.50;0.70;;;;;;;-3.35;67.02;99002.34;4249570;28;20231;-66
2024/01/16 11:17:57;;;;;;;3.43;2.00;;;;;;;-3.15;66.75;99000.25;4244922;28;20249;-68
2024/01/16 11:20:25;;;;;;;6.50;1.40;;;;;;;-3.07;66.89;99013.00;4242045;28;20644;-68
2024/01/16 11:23:13;;;;;;;1.93;0.97;;;;;;;-3.27;67.87;99004.50;4256197;28;25659;-65
2024/01/16 11:25:39;;;;;;;3.30;1.33;;;;;;;-3.34;68.29;99003.19;4247076;28;20370;-67
2024/01/16 11:28:14;;;;;;;1.40;0.77;;;;;;;-3.68;69.87;99011.38;4249426;28;22878;-70
2024/01/16 11:30:42;;;;;;;0.10;0.10;;;;;;;-3.67;70.25;98999.84;4255586;28;20233;-64
2024/01/16 11:33:32;;;;;;;2.93;1.07;;;;;;;-3.61;70.04;99011.00;4257692;28;21741;-66
2024/01/16 11:36:00;;;;;;;1.90;1.47;;;;;;;-3.89;70.85;99018.78;4253254;28;22848;-66